This is the latest recevied weather packets stored in our database for station/object DC4AT. If no packets are shown the sender has not sent any weather packets the latest 10 day(s).
| Time | Temp. | Humidity | Pressure | Rain* | Wind** | Luminosity | Snow |
|---|---|---|---|---|---|---|---|
| 1777645426 | 20.56° C | 39% | 1026.5 hPa | 0 mm | - | 561 W/m² | - |
| 1777644826 | 20.56° C | 42% | 1026.6 hPa | 0 mm | - | 580 W/m² | - |
| 1777644226 | 20.56° C | 39% | 1026.7 hPa | 0 mm | - | 601 W/m² | - |
| 1777643626 | 20.56° C | 40% | 1026.8 hPa | 0 mm | - | 617 W/m² | - |
| 1777643026 | 20.56° C | 41% | 1026.9 hPa | 0 mm | - | 629 W/m² | - |
| 1777642426 | 20.56° C | 41% | 1027.1 hPa | 0 mm | - | 642 W/m² | - |
| 1777641826 | 20° C | 40% | 1027.1 hPa | 0 mm | - | 652 W/m² | - |
| 1777641226 | 20° C | 42% | 1027.1 hPa | 0 mm | - | 666 W/m² | - |
| 1777638826 | 20.56° C | 44% | 1027.8 hPa | 0 mm | - | 701 W/m² | - |
| 1777638226 | 20° C | 45% | 1027.8 hPa | 0 mm | - | 705 W/m² | - |
| 1777637626 | 19.44° C | 44% | 1028 hPa | 0 mm | - | 705 W/m² | - |
| 1777637026 | 19.44° C | 45% | 1028.2 hPa | 0 mm | - | 708 W/m² | - |
| 1777636426 | 18.89° C | 46% | 1028.3 hPa | 0 mm | - | 712 W/m² | - |
| 1777635226 | 18.89° C | 47% | 1028.4 hPa | 0 mm | - | 715 W/m² | - |
| 1777634626 | 18.89° C | 45% | 1028.5 hPa | 0 mm | - | 714 W/m² | - |
| 1777634026 | 18.89° C | 47% | 1028.7 hPa | 0 mm | - | 712 W/m² | - |
| 1777633426 | 18.89° C | 46% | 1028.7 hPa | 0 mm | - | 714 W/m² | - |
| 1777632826 | 18.33° C | 47% | 1028.8 hPa | 0 mm | - | 710 W/m² | - |
| 1777631626 | 17.78° C | 47% | 1029 hPa | 0 mm | - | 696 W/m² | - |
| 1777631026 | 17.78° C | 48% | 1029.2 hPa | 0 mm | - | 691 W/m² | - |
| 1777630426 | 17.78° C | 47% | 1029.3 hPa | 0 mm | - | 682 W/m² | - |
| 1777629826 | 17.22° C | 47% | 1029.4 hPa | 0 mm | - | 673 W/m² | - |
| 1777629227 | 17.22° C | 45% | 1029.4 hPa | 0 mm | - | 664 W/m² | - |
| 1777628627 | 17.22° C | 47% | 1029.4 hPa | 0 mm | - | 657 W/m² | - |
| 1777628027 | 16.67° C | 47% | 1029.5 hPa | 0 mm | - | 645 W/m² | - |
* Rain latest hour (hover to see other rain measurements)
** Current wind speed in m/s (hover to see current wind gust speed)